Time;durP1;ratioP1;P1;durP2;ratioP2;P2;SDS_P1;SDS_P2;PMS_P1;PMS_P2;Temp;Humidity;BMP_temperature;BMP_pressure;BME280_temperature;BME280_humidity;BME280_pressure;Samples;Min_cycle;Max_cycle;Signal;HPM_P1;HPM_P2
2020/12/08 00:00:52;;;;;;;;;;;21.00;78.60;;;;;;1850122;76;20213;-78
2020/12/08 00:03:23;;;;;;;;;;;20.90;78.60;;;;;;1829333;77;20390;-77
2020/12/08 00:05:53;;;;;;;;;;;21.00;79.00;;;;;;1821397;78;20250;-77
2020/12/08 00:08:23;;;;;;;;;;;20.90;78.70;;;;;;1829370;78;20182;-77
2020/12/08 00:10:54;;;;;;;;;;;21.00;79.10;;;;;;1801507;78;20234;-77
2020/12/08 00:13:24;;;;;;;;;;;21.00;78.70;;;;;;1772296;80;20168;-77
2020/12/08 00:15:54;;;;;;;;;;;21.00;79.00;;;;;;1776984;80;20186;-77
2020/12/08 00:18:23;;;;;;;;;;;21.00;78.30;;;;;;1806955;77;20232;-77
2020/12/08 00:20:56;;;;;;;;;;;21.00;78.50;;;;;;1835821;76;20209;-78
2020/12/08 00:23:28;;;;;;;;;;;21.00;78.70;;;;;;1835456;78;20204;-68
2020/12/08 00:25:59;;;;;;;;;;;21.10;78.60;;;;;;1841013;78;20232;-68
2020/12/08 00:28:29;;;;;;;;;;;21.10;78.60;;;;;;1839147;78;20243;-67
2020/12/08 00:30:59;;;;;;;;;;;21.10;78.10;;;;;;1844853;78;20205;-68
2020/12/08 00:33:29;;;;;;;;;;;21.10;78.20;;;;;;1836256;78;20504;-68
2020/12/08 00:35:59;;;;;;;;;;;21.10;77.90;;;;;;1836606;78;20178;-68
2020/12/08 00:38:29;;;;;;;;;;;21.10;77.80;;;;;;1833825;76;20513;-68
2020/12/08 00:40:59;;;;;;;;;;;21.10;77.70;;;;;;1843805;76;20541;-68
2020/12/08 00:43:29;;;;;;;;;;;21.20;77.60;;;;;;1844996;77;20224;-68
2020/12/08 00:45:59;;;;;;;;;;;21.20;77.90;;;;;;1847659;77;20519;-68
2020/12/08 00:48:31;;;;;;;;;;;21.20;77.70;;;;;;1845460;77;20241;-68
2020/12/08 00:51:02;;;;;;;;;;;21.30;77.60;;;;;;1845024;76;20213;-68
2020/12/08 00:53:32;;;;;;;;;;;21.30;78.00;;;;;;1828035;77;20187;-68
2020/12/08 00:56:03;;;;;;;;;;;21.30;77.30;;;;;;1826363;77;20194;-67
2020/12/08 00:58:33;;;;;;;;;;;21.40;77.50;;;;;;1848750;77;20162;-67
2020/12/08 01:01:03;;;;;;;;;;;21.40;77.00;;;;;;1847575;76;20279;-68
2020/12/08 01:03:34;;;;;;;;;;;21.50;76.70;;;;;;1858117;76;20231;-67
2020/12/08 01:06:05;;;;;;;;;;;21.60;76.50;;;;;;1856604;76;20206;-67
2020/12/08 01:08:35;;;;;;;;;;;21.60;76.00;;;;;;1850607;76;20260;-68
2020/12/08 01:11:06;;;;;;;;;;;21.60;75.80;;;;;;1852264;76;20441;-66
2020/12/08 01:13:35;;;;;;;;;;;21.60;75.80;;;;;;1859771;76;20219;-66
2020/12/08 01:16:06;;;;;;;;;;;21.60;75.70;;;;;;1853615;76;20213;-67
2020/12/08 01:18:43;;;;;;;;;;;21.60;75.80;;;;;;1853148;76;20690;-65
2020/12/08 01:24:03;;;;;;;;;;;21.70;75.80;;;;;;1845687;75;20225;-65
2020/12/08 01:26:42;;;;;;;;;;;21.80;75.50;;;;;;1839731;76;20246;-64
2020/12/08 01:29:12;;;;;;;;;;;21.90;75.30;;;;;;1822182;77;20219;-67
2020/12/08 01:31:43;;;;;;;;;;;21.90;75.20;;;;;;1792408;78;20252;-68
2020/12/08 01:34:14;;;;;;;;;;;22.00;75.10;;;;;;1863925;75;20179;-66
2020/12/08 01:36:44;;;;;;;;;;;22.10;74.80;;;;;;1860642;76;20148;-66
2020/12/08 01:39:14;;;;;;;;;;;22.20;74.40;;;;;;1850734;75;20174;-66
2020/12/08 01:41:47;;;;;;;;;;;22.20;75.30;;;;;;1854840;76;20194;-66
2020/12/08 01:44:16;;;;;;;;;;;22.20;74.00;;;;;;1821523;77;20200;-68
2020/12/08 01:46:47;;;;;;;;;;;22.30;73.80;;;;;;1819254;77;20428;-67
2020/12/08 01:49:18;;;;;;;;;;;22.30;73.40;;;;;;1813992;77;20240;-67
2020/12/08 01:51:48;;;;;;;;;;;22.30;73.20;;;;;;1859328;76;20443;-66
2020/12/08 01:54:18;;;;;;;;;;;22.30;73.10;;;;;;1854984;76;20181;-67
2020/12/08 01:56:48;;;;;;;;;;;22.30;73.20;;;;;;1855780;75;20505;-67
2020/12/08 01:59:18;;;;;;;;;;;22.30;73.10;;;;;;1801164;77;20189;-67
2020/12/08 02:01:48;;;;;;;;;;;22.40;73.10;;;;;;1840878;77;20190;-67
2020/12/08 02:04:18;;;;;;;;;;;22.50;72.90;;;;;;1786277;78;20505;-68
2020/12/08 02:06:48;;;;;;;;;;;22.50;72.70;;;;;;1824574;77;20147;-67
2020/12/08 02:09:19;;;;;;;;;;;22.60;72.50;;;;;;1797106;78;20208;-68
2020/12/08 02:11:49;;;;;;;;;;;22.60;72.50;;;;;;1864015;75;20177;-67
2020/12/08 02:14:19;;;;;;;;;;;22.70;72.40;;;;;;1823049;78;20243;-68
2020/12/08 02:16:49;;;;;;;;;;;22.70;72.30;;;;;;1818195;78;20193;-68
2020/12/08 02:19:19;;;;;;;;;;;22.80;72.00;;;;;;1820243;77;20282;-66
2020/12/08 02:21:49;;;;;;;;;;;22.80;71.90;;;;;;1853235;75;20270;-67
2020/12/08 02:24:19;;;;;;;;;;;22.80;71.90;;;;;;1822120;77;20520;-68
2020/12/08 02:26:49;;;;;;;;;;;22.90;71.60;;;;;;1858492;76;20258;-68
2020/12/08 02:29:19;;;;;;;;;;;22.90;70.90;;;;;;1859305;75;20136;-69
2020/12/08 02:31:49;;;;;;;;;;;22.90;70.90;;;;;;1839310;77;20242;-68
2020/12/08 02:34:18;;;;;;;;;;;23.00;71.30;;;;;;1846097;77;20189;-68
2020/12/08 02:36:49;;;;;;;;;;;23.00;71.20;;;;;;1842051;77;20184;-65
2020/12/08 02:39:20;;;;;;;;;;;23.10;71.10;;;;;;1861362;75;20245;-73
2020/12/08 02:41:55;;;;;;;;;;;23.10;70.30;;;;;;1856753;76;20214;-67
2020/12/08 02:44:24;;;;;;;;;;;23.20;69.90;;;;;;1859093;75;20227;-67
2020/12/08 02:46:54;;;;;;;;;;;23.20;70.60;;;;;;1856533;76;20244;-66
2020/12/08 02:49:24;;;;;;;;;;;23.30;69.40;;;;;;1860254;76;20163;-66
2020/12/08 02:51:55;;;;;;;;;;;23.30;68.80;;;;;;1841277;76;20144;-67
2020/12/08 02:54:25;;;;;;;;;;;23.40;68.60;;;;;;1859651;76;20204;-66
2020/12/08 02:56:55;;;;;;;;;;;23.40;68.50;;;;;;1844178;76;20249;-66
2020/12/08 02:59:26;;;;;;;;;;;23.50;69.10;;;;;;1826897;77;20228;-67
2020/12/08 03:01:57;;;;;;;;;;;23.50;68.70;;;;;;1858340;76;20183;-67
2020/12/08 03:04:28;;;;;;;;;;;23.60;68.00;;;;;;1862293;76;20219;-67
2020/12/08 03:06:57;;;;;;;;;;;23.70;67.90;;;;;;1789688;79;20266;-68
2020/12/08 03:09:28;;;;;;;;;;;23.70;67.60;;;;;;1862141;76;20236;-67
2020/12/08 03:11:57;;;;;;;;;;;23.80;68.10;;;;;;1844585;76;20792;-66
2020/12/08 03:14:28;;;;;;;;;;;23.90;67.20;;;;;;1840756;77;20256;-65
2020/12/08 03:16:57;;;;;;;;;;;24.00;66.90;;;;;;1840452;77;20246;-68
2020/12/08 03:19:27;;;;;;;;;;;24.00;66.80;;;;;;1843257;77;20222;-67
2020/12/08 03:21:57;;;;;;;;;;;24.10;65.50;;;;;;1841851;76;20192;-66
2020/12/08 03:24:30;;;;;;;;;;;24.20;65.40;;;;;;1851890;75;20259;-70
2020/12/08 03:27:01;;;;;;;;;;;24.30;65.60;;;;;;1857561;75;20176;-64
2020/12/08 03:29:31;;;;;;;;;;;24.40;65.50;;;;;;1855445;76;20456;-66
2020/12/08 03:32:01;;;;;;;;;;;24.50;65.80;;;;;;1837507;77;20163;-66
2020/12/08 03:34:30;;;;;;;;;;;24.60;65.00;;;;;;1844936;76;20171;-69
2020/12/08 03:37:00;;;;;;;;;;;24.60;65.10;;;;;;1851703;76;20465;-67
2020/12/08 03:39:30;;;;;;;;;;;24.70;65.70;;;;;;1852201;76;20496;-67
2020/12/08 03:42:00;;;;;;;;;;;24.80;64.60;;;;;;1854166;76;20219;-68
2020/12/08 03:44:31;;;;;;;;;;;24.90;63.20;;;;;;1845820;76;20208;-68
2020/12/08 03:47:02;;;;;;;;;;;25.00;63.30;;;;;;1838358;77;20178;-70
2020/12/08 03:49:32;;;;;;;;;;;25.00;62.30;;;;;;1838167;76;20164;-69
2020/12/08 03:52:19;;;;;;;;;;;25.20;62.40;;;;;;1838856;76;20166;-69
2020/12/08 03:54:51;;;;;;;;;;;25.20;60.80;;;;;;1827104;77;20236;-69
2020/12/08 03:57:36;;;;;;;;;;;;;;;;;;;;;
2020/12/08 04:00:02;;;;;;;;;;;25.40;59.50;;;;;;1835288;77;20479;-67
2020/12/08 04:02:32;;;;;;;;;;;25.50;59.90;;;;;;1840383;77;20164;-67
2020/12/08 04:05:02;;;;;;;;;;;25.70;59.20;;;;;;1837849;76;20159;-69
2020/12/08 04:07:33;;;;;;;;;;;25.80;59.70;;;;;;1837036;77;20453;-69
2020/12/08 04:10:04;;;;;;;;;;;25.80;58.70;;;;;;1833190;76;20182;-69
2020/12/08 04:12:33;;;;;;;;;;;25.90;58.10;;;;;;1846727;76;20583;-69
2020/12/08 04:15:04;;;;;;;;;;;26.00;59.70;;;;;;1837168;77;20207;-70
2020/12/08 04:17:34;;;;;;;;;;;26.00;56.90;;;;;;1846832;76;20169;-69
2020/12/08 04:20:04;;;;;;;;;;;26.20;58.00;;;;;;1852865;76;20414;-68
2020/12/08 04:22:34;;;;;;;;;;;26.20;56.40;;;;;;1848272;76;20159;-69
2020/12/08 04:25:06;;;;;;;;;;;26.40;58.50;;;;;;1856051;76;20221;-66
2020/12/08 04:27:46;;;;;;;;;;;26.50;57.30;;;;;;1783444;79;20508;-68
2020/12/08 04:30:13;;;;;;;;;;;26.50;58.10;;;;;;1764479;79;20306;-69
2020/12/08 04:32:42;;;;;;;;;;;26.60;58.20;;;;;;1802839;79;20264;-68
2020/12/08 04:35:12;;;;;;;;;;;26.60;56.80;;;;;;1802725;79;20181;-68
2020/12/08 04:37:42;;;;;;;;;;;26.60;57.70;;;;;;1796784;79;20248;-68
2020/12/08 04:40:12;;;;;;;;;;;26.60;56.90;;;;;;1785050;79;20172;-67
2020/12/08 04:42:43;;;;;;;;;;;26.70;57.10;;;;;;1787779;79;20230;-67
2020/12/08 04:45:33;;;;;;;;;;;26.80;54.80;;;;;;1792216;79;20473;-67
2020/12/08 04:48:07;;;;;;;;;;;26.80;56.70;;;;;;1752052;81;20268;-68
2020/12/08 04:50:35;;;;;;;;;;;27.00;55.60;;;;;;1752003;81;20347;-67
2020/12/08 04:53:06;;;;;;;;;;;27.10;55.90;;;;;;1741950;81;20257;-68
2020/12/08 04:55:37;;;;;;;;;;;27.20;55.90;;;;;;1754987;81;20448;-68
2020/12/08 04:58:07;;;;;;;;;;;27.30;54.90;;;;;;1754092;82;20248;-67
2020/12/08 05:00:38;;;;;;;;;;;27.30;54.40;;;;;;1746798;81;20252;-68
2020/12/08 05:03:09;;;;;;;;;;;27.30;53.20;;;;;;1743052;81;20247;-67
2020/12/08 05:05:40;;;;;;;;;;;27.40;54.50;;;;;;1746376;81;20336;-66
2020/12/08 05:08:11;;;;;;;;;;;27.40;53.80;;;;;;1719655;81;20290;-67
2020/12/08 05:10:42;;;;;;;;;;;27.60;52.40;;;;;;1706587;83;20247;-66
2020/12/08 05:13:13;;;;;;;;;;;27.70;53.90;;;;;;1754564;81;20303;-68
2020/12/08 05:15:43;;;;;;;;;;;27.80;51.60;;;;;;1764169;80;20257;-68
2020/12/08 05:18:13;;;;;;;;;;;27.80;53.60;;;;;;1762770;81;20224;-70
2020/12/08 05:20:43;;;;;;;;;;;27.90;52.90;;;;;;1756580;80;20256;-69
2020/12/08 05:23:14;;;;;;;;;;;27.80;52.20;;;;;;1758369;80;20263;-69
2020/12/08 05:25:47;;;;;;;;;;;27.90;51.80;;;;;;1820728;78;20176;-69
2020/12/08 05:28:16;;;;;;;;;;;27.90;52.90;;;;;;1818268;78;20203;-69
2020/12/08 05:30:48;;;;;;;;;;;27.90;51.40;;;;;;1826833;78;20168;-70
2020/12/08 05:33:20;;;;;;;;;;;27.90;54.30;;;;;;1822301;78;20194;-68
2020/12/08 05:35:54;;;;;;;;;;;28.00;52.70;;;;;;1818233;78;20203;-66
2020/12/08 05:38:26;;;;;;;;;;;28.00;52.70;;;;;;1822571;78;20221;-67
2020/12/08 05:41:00;;;;;;;;;;;28.00;53.00;;;;;;1824972;78;20180;-67
2020/12/08 05:43:36;;;;;;;;;;;28.10;52.80;;;;;;1825563;78;20231;-68
2020/12/08 05:46:07;;;;;;;;;;;28.10;53.10;;;;;;1821810;78;20392;-67
2020/12/08 05:48:38;;;;;;;;;;;28.10;54.00;;;;;;1740817;81;20216;-68
2020/12/08 05:51:08;;;;;;;;;;;28.10;54.20;;;;;;1771017;80;20190;-68
2020/12/08 05:53:38;;;;;;;;;;;28.10;54.40;;;;;;1774746;79;20259;-68
2020/12/08 05:56:11;;;;;;;;;;;28.20;52.60;;;;;;1739160;79;20233;-69
2020/12/08 06:05:13;;;;;;;;;;;28.30;52.30;;;;;;1644670;85;20504;-69
2020/12/08 06:08:03;;;;;;;;;;;28.30;50.40;;;;;;1629310;86;20606;-69
2020/12/08 06:10:35;;;;;;;;;;;28.30;51.00;;;;;;1629798;86;20238;-69
2020/12/08 06:13:09;;;;;;;;;;;28.40;51.80;;;;;;1630200;86;20262;-68
2020/12/08 06:15:44;;;;;;;;;;;28.50;52.70;;;;;;1635432;86;20339;-69
2020/12/08 06:18:11;;;;;;;;;;;28.50;50.90;;;;;;1630340;86;21014;-69
2020/12/08 06:21:08;;;;;;;;;;;28.50;50.20;;;;;;1624829;86;20539;-67
2020/12/08 06:23:47;;;;;;;;;;;28.50;52.50;;;;;;1613369;87;20471;-66
2020/12/08 06:26:28;;;;;;;;;;;28.50;52.40;;;;;;1613672;87;20575;-69
2020/12/08 06:29:22;;;;;;;;;;;28.50;52.20;;;;;;1615957;87;20245;-67
2020/12/08 06:31:52;;;;;;;;;;;28.50;53.00;;;;;;1612334;87;20849;-67
2020/12/08 06:34:29;;;;;;;;;;;28.50;50.30;;;;;;1616982;87;20304;-67
2020/12/08 06:36:54;;;;;;;;;;;28.50;50.90;;;;;;1626836;86;20570;-68
2020/12/08 06:39:24;;;;;;;;;;;28.50;51.00;;;;;;1631855;86;20687;-68
2020/12/08 06:41:56;;;;;;;;;;;28.60;50.90;;;;;;1631678;86;20239;-69
2020/12/08 06:44:28;;;;;;;;;;;28.60;49.90;;;;;;1645769;82;20280;-68
2020/12/08 06:46:59;;;;;;;;;;;28.60;50.10;;;;;;1702718;82;20339;-68
2020/12/08 06:49:30;;;;;;;;;;;28.60;51.90;;;;;;1718623;82;20314;-67
2020/12/08 06:52:00;;;;;;;;;;;28.60;50.70;;;;;;1729564;82;20302;-67
2020/12/08 06:54:32;;;;;;;;;;;28.60;50.40;;;;;;1731626;81;20270;-68
2020/12/08 06:57:06;;;;;;;;;;;28.60;52.20;;;;;;1724468;81;20309;-67
2020/12/08 06:59:39;;;;;;;;;;;28.60;52.80;;;;;;1723203;79;20292;-66
2020/12/08 07:02:09;;;;;;;;;;;28.50;53.10;;;;;;1798589;78;20454;-68
2020/12/08 07:04:40;;;;;;;;;;;28.50;53.00;;;;;;1821851;76;20247;-67
2020/12/08 07:07:10;;;;;;;;;;;28.50;53.10;;;;;;1780497;79;20214;-68
2020/12/08 07:09:41;;;;;;;;;;;28.50;50.50;;;;;;1806845;78;20506;-67
2020/12/08 07:12:11;;;;;;;;;;;28.60;50.70;;;;;;1816155;78;20208;-66
2020/12/08 07:14:41;;;;;;;;;;;28.60;51.00;;;;;;1814807;78;20436;-67
2020/12/08 07:17:12;;;;;;;;;;;28.50;51.70;;;;;;1817301;78;20164;-68
2020/12/08 07:19:46;;;;;;;;;;;28.50;52.80;;;;;;1814906;78;20269;-67
2020/12/08 07:22:20;;;;;;;;;;;28.50;52.10;;;;;;1786430;79;20217;-67
2020/12/08 07:24:52;;;;;;;;;;;28.40;51.80;;;;;;1812243;78;20576;-67
2020/12/08 07:27:27;;;;;;;;;;;28.50;52.70;;;;;;1816220;78;20507;-69
2020/12/08 07:29:59;;;;;;;;;;;28.40;51.70;;;;;;1816524;78;20180;-66
2020/12/08 07:32:32;;;;;;;;;;;28.40;49.60;;;;;;1812651;77;20255;-67
2020/12/08 07:35:05;;;;;;;;;;;28.40;49.60;;;;;;1796193;78;20237;-68
2020/12/08 07:37:36;;;;;;;;;;;28.40;49.80;;;;;;1816273;77;20223;-69
2020/12/08 07:40:08;;;;;;;;;;;28.40;49.70;;;;;;1816434;77;20289;-68
2020/12/08 07:42:39;;;;;;;;;;;28.40;51.40;;;;;;1795103;78;20211;-68
2020/12/08 07:45:09;;;;;;;;;;;28.40;51.50;;;;;;1820181;77;20188;-66
2020/12/08 07:47:41;;;;;;;;;;;28.40;51.70;;;;;;1809178;79;20393;-65
2020/12/08 07:50:13;;;;;;;;;;;28.40;51.10;;;;;;1816247;78;20130;-66
2020/12/08 07:52:50;;;;;;;;;;;28.40;51.70;;;;;;1785842;78;20170;-66
2020/12/08 07:55:21;;;;;;;;;;;28.40;52.50;;;;;;1813202;78;20235;-66
2020/12/08 07:57:51;;;;;;;;;;;28.40;51.50;;;;;;1816079;78;20293;-65
2020/12/08 08:00:25;;;;;;;;;;;28.40;51.40;;;;;;1795177;78;20245;-67
2020/12/08 08:02:56;;;;;;;;;;;28.30;51.60;;;;;;1816898;78;20193;-67
2020/12/08 08:08:22;;;;;;;;;;;28.30;51.10;;;;;;1856770;76;20235;-67
2020/12/08 08:10:48;;;;;;;;;;;28.30;51.70;;;;;;1858915;76;20479;-66
2020/12/08 08:13:23;;;;;;;;;;;28.30;52.00;;;;;;1859318;76;20217;-67
2020/12/08 08:15:50;;;;;;;;;;;28.30;51.30;;;;;;1850141;76;20488;-66
2020/12/08 08:18:20;;;;;;;;;;;28.30;51.70;;;;;;1854848;76;20207;-67
2020/12/08 08:20:50;;;;;;;;;;;28.30;51.90;;;;;;1848623;76;20246;-67
2020/12/08 08:23:24;;;;;;;;;;;28.30;51.30;;;;;;1851778;77;20165;-66
2020/12/08 08:25:59;;;;;;;;;;;28.20;51.50;;;;;;1858990;76;20272;-67
2020/12/08 08:28:31;;;;;;;;;;;28.20;51.80;;;;;;1856773;76;20256;-66
2020/12/08 08:31:00;;;;;;;;;;;28.20;51.60;;;;;;1861122;76;20205;-67
2020/12/08 08:33:30;;;;;;;;;;;28.10;51.20;;;;;;1851851;76;20172;-68
2020/12/08 08:36:01;;;;;;;;;;;28.00;51.40;;;;;;1853619;76;20181;-67
2020/12/08 08:38:33;;;;;;;;;;;28.10;51.70;;;;;;1850416;77;20189;-67
2020/12/08 08:41:04;;;;;;;;;;;28.00;50.60;;;;;;1829338;77;20154;-67
2020/12/08 08:43:36;;;;;;;;;;;28.00;51.40;;;;;;1840785;77;20150;-66
2020/12/08 08:46:08;;;;;;;;;;;28.10;51.10;;;;;;1856938;76;20220;-67
2020/12/08 08:48:38;;;;;;;;;;;28.10;50.50;;;;;;1857469;76;20159;-67
2020/12/08 08:51:08;;;;;;;;;;;28.10;50.50;;;;;;1860647;76;20410;-68
2020/12/08 08:53:38;;;;;;;;;;;28.10;52.20;;;;;;1854490;76;20166;-67
2020/12/08 08:56:18;;;;;;;;;;;28.00;51.80;;;;;;1859824;76;20280;-68
2020/12/08 08:58:50;;;;;;;;;;;28.00;51.50;;;;;;1853065;76;20186;-67
2020/12/08 09:01:24;;;;;;;;;;;28.00;51.20;;;;;;1859760;75;20532;-67
2020/12/08 09:04:02;;;;;;;;;;;28.00;52.30;;;;;;1861711;75;20163;-67
2020/12/08 09:06:38;;;;;;;;;;;27.90;51.90;;;;;;1848995;76;20234;-66
2020/12/08 09:09:08;;;;;;;;;;;27.90;52.30;;;;;;1851044;77;20123;-68
2020/12/08 09:11:38;;;;;;;;;;;27.90;52.10;;;;;;1848703;76;20294;-68
2020/12/08 09:14:09;;;;;;;;;;;27.90;51.50;;;;;;1848707;76;20127;-68
2020/12/08 09:16:43;;;;;;;;;;;27.90;51.50;;;;;;1844903;77;20198;-69
2020/12/08 09:19:12;;;;;;;;;;;27.80;51.60;;;;;;1850787;76;20369;-67
2020/12/08 09:21:42;;;;;;;;;;;27.80;51.10;;;;;;1845562;77;20168;-67
2020/12/08 09:24:12;;;;;;;;;;;27.80;51.40;;;;;;1851205;76;20178;-66
2020/12/08 09:26:42;;;;;;;;;;;27.80;52.30;;;;;;1842555;76;20276;-67
2020/12/08 09:29:12;;;;;;;;;;;27.80;50.70;;;;;;1856023;77;20211;-67
2020/12/08 09:31:42;;;;;;;;;;;27.80;50.60;;;;;;1843968;78;20186;-68
2020/12/08 09:34:13;;;;;;;;;;;27.80;51.20;;;;;;1845954;77;20505;-68
2020/12/08 09:36:43;;;;;;;;;;;27.80;51.90;;;;;;1845003;77;20250;-68
2020/12/08 09:39:14;;;;;;;;;;;27.70;51.60;;;;;;1843582;77;20134;-67
2020/12/08 09:41:43;;;;;;;;;;;27.70;52.10;;;;;;1838098;77;20195;-68
2020/12/08 09:44:14;;;;;;;;;;;27.70;52.50;;;;;;1853659;76;20185;-67
2020/12/08 09:46:45;;;;;;;;;;;27.60;51.80;;;;;;1850280;77;20575;-67
2020/12/08 09:49:15;;;;;;;;;;;27.60;52.10;;;;;;1846665;76;20212;-67
2020/12/08 09:51:46;;;;;;;;;;;27.60;53.10;;;;;;1839693;76;20178;-67
2020/12/08 09:54:16;;;;;;;;;;;27.50;52.10;;;;;;1822195;77;20184;-68
2020/12/08 09:59:36;;;;;;;;;;;27.40;52.50;;;;;;1817714;79;20184;-67
2020/12/08 10:02:07;;;;;;;;;;;27.40;52.50;;;;;;1810223;78;20282;-67
2020/12/08 10:04:37;;;;;;;;;;;27.40;52.60;;;;;;1812238;79;20424;-67
2020/12/08 10:07:09;;;;;;;;;;;27.40;52.40;;;;;;1817933;78;20381;-67
2020/12/08 10:09:48;;;;;;;;;;;27.30;53.10;;;;;;1817610;78;20161;-66
2020/12/08 10:12:20;;;;;;;;;;;27.30;53.00;;;;;;1818338;77;20195;-69
2020/12/08 10:14:50;;;;;;;;;;;27.30;53.20;;;;;;1816342;78;20221;-67
2020/12/08 10:17:26;;;;;;;;;;;27.30;53.30;;;;;;1818625;78;20192;-66
2020/12/08 10:19:55;;;;;;;;;;;27.20;53.40;;;;;;1818827;77;20211;-65
2020/12/08 10:22:24;;;;;;;;;;;27.20;53.40;;;;;;1818963;79;20192;-66
2020/12/08 10:24:54;;;;;;;;;;;27.20;53.40;;;;;;1813110;77;20211;-67
2020/12/08 10:27:43;;;;;;;;;;;27.20;53.70;;;;;;1855934;76;20569;-67
2020/12/08 10:30:12;;;;;;;;;;;27.20;53.60;;;;;;1836771;76;20202;-67
2020/12/08 10:32:42;;;;;;;;;;;27.10;53.70;;;;;;1857629;76;20191;-67
2020/12/08 10:35:12;;;;;;;;;;;27.10;53.70;;;;;;1821117;78;20508;-67
2020/12/08 10:37:43;;;;;;;;;;;27.00;53.70;;;;;;1794381;79;20469;-68
2020/12/08 10:40:13;;;;;;;;;;;27.00;53.60;;;;;;1807430;78;20727;-68
2020/12/08 10:42:45;;;;;;;;;;;27.00;53.70;;;;;;1823328;78;20635;-68
2020/12/08 10:45:15;;;;;;;;;;;26.90;53.80;;;;;;1849918;77;20265;-68
2020/12/08 10:47:44;;;;;;;;;;;26.90;53.90;;;;;;1822586;78;20784;-68
2020/12/08 10:50:16;;;;;;;;;;;26.90;53.90;;;;;;1794938;79;20507;-68
2020/12/08 10:52:46;;;;;;;;;;;26.80;53.90;;;;;;1793963;79;20193;-68
2020/12/08 10:55:17;;;;;;;;;;;26.80;53.90;;;;;;1807504;78;20246;-68
2020/12/08 10:57:48;;;;;;;;;;;26.70;54.00;;;;;;1796253;79;20480;-68
2020/12/08 11:00:26;;;;;;;;;;;26.70;54.30;;;;;;1794609;78;20197;-69
2020/12/08 11:02:50;;;;;;;;;;;26.70;54.50;;;;;;1821223;78;20460;-67
2020/12/08 11:08:28;;;;;;;;;;;26.60;54.60;;;;;;1734965;81;20206;-68
2020/12/08 11:10:58;;;;;;;;;;;26.60;54.70;;;;;;1725559;82;20230;-68
2020/12/08 11:13:29;;;;;;;;;;;26.60;54.90;;;;;;1760495;79;20270;-68
2020/12/08 11:16:00;;;;;;;;;;;26.50;55.00;;;;;;1730373;81;20245;-67
2020/12/08 11:18:33;;;;;;;;;;;26.50;55.20;;;;;;1734774;80;20231;-69
2020/12/08 11:21:03;;;;;;;;;;;26.50;55.50;;;;;;1752558;80;20296;-69
2020/12/08 11:23:33;;;;;;;;;;;26.40;55.50;;;;;;1775279;79;20241;-67
2020/12/08 11:26:03;;;;;;;;;;;26.40;55.60;;;;;;1752534;81;20283;-68
2020/12/08 11:28:33;;;;;;;;;;;26.40;55.90;;;;;;1749703;82;20194;-67
2020/12/08 11:31:02;;;;;;;;;;;26.40;55.90;;;;;;1771398;79;20473;-68
2020/12/08 11:33:36;;;;;;;;;;;26.30;56.00;;;;;;1806204;78;20215;-68
2020/12/08 11:36:07;;;;;;;;;;;26.30;56.10;;;;;;1799899;78;20275;-68
2020/12/08 11:38:37;;;;;;;;;;;26.30;56.30;;;;;;1801932;78;20193;-68
2020/12/08 11:41:07;;;;;;;;;;;26.20;56.30;;;;;;1802842;78;20188;-68
2020/12/08 11:43:42;;;;;;;;;;;26.20;56.40;;;;;;1802271;78;20145;-68
2020/12/08 11:46:10;;;;;;;;;;;26.20;56.50;;;;;;1833209;77;20213;-78
2020/12/08 11:48:48;;;;;;;;;;;26.20;57.30;;;;;;1814610;78;20239;-79
2020/12/08 11:51:19;;;;;;;;;;;26.10;56.60;;;;;;1822088;77;20194;-79
2020/12/08 11:53:58;;;;;;;;;;;26.10;56.70;;;;;;1820946;77;20181;-76
2020/12/08 11:56:28;;;;;;;;;;;26.10;56.80;;;;;;1843940;78;20225;-76
2020/12/08 11:59:05;;;;;;;;;;;26.10;56.80;;;;;;1837536;77;20261;-78
2020/12/08 12:01:37;;;;;;;;;;;26.00;56.80;;;;;;1838371;77;20301;-80
2020/12/08 12:04:11;;;;;;;;;;;26.00;56.90;;;;;;1836561;77;20695;-77
2020/12/08 12:06:45;;;;;;;;;;;26.00;57.10;;;;;;1838702;77;20174;-78
2020/12/08 12:09:11;;;;;;;;;;;26.00;57.30;;;;;;1821285;78;20184;-79
2020/12/08 12:11:41;;;;;;;;;;;25.90;57.20;;;;;;1821187;78;20200;-78
2020/12/08 12:14:11;;;;;;;;;;;25.90;57.40;;;;;;1789694;80;20226;-79
2020/12/08 12:16:42;;;;;;;;;;;25.90;57.60;;;;;;1862911;77;20259;-78
2020/12/08 12:19:15;;;;;;;;;;;25.80;57.50;;;;;;1857582;77;20203;-78
2020/12/08 12:21:45;;;;;;;;;;;25.80;57.60;;;;;;1835840;76;20200;-80
2020/12/08 12:24:18;;;;;;;;;;;25.80;57.60;;;;;;1863524;76;20208;-79
2020/12/08 12:26:52;;;;;;;;;;;25.80;57.50;;;;;;1875392;74;20194;-79
2020/12/08 12:29:22;;;;;;;;;;;25.80;57.60;;;;;;1898407;74;20200;-78
2020/12/08 12:31:57;;;;;;;;;;;25.70;57.70;;;;;;1898187;74;20194;-80
2020/12/08 12:34:33;;;;;;;;;;;25.70;57.70;;;;;;1904330;74;20205;-79
2020/12/08 12:37:14;;;;;;;;;;;25.70;57.80;;;;;;1901399;74;20126;-79
2020/12/08 12:39:55;;;;;;;;;;;25.70;57.90;;;;;;1905183;73;20210;-80
2020/12/08 12:42:27;;;;;;;;;;;25.60;57.90;;;;;;1899939;74;20154;-80
2020/12/08 12:44:59;;;;;;;;;;;25.70;57.90;;;;;;1891714;74;20448;-78
2020/12/08 12:47:29;;;;;;;;;;;25.60;57.90;;;;;;1912122;74;20212;-79
2020/12/08 12:50:03;;;;;;;;;;;25.60;57.80;;;;;;1890675;74;20186;-79
2020/12/08 12:52:33;;;;;;;;;;;25.60;57.90;;;;;;1897390;74;20234;-77
2020/12/08 12:55:11;;;;;;;;;;;25.60;58.00;;;;;;1897760;74;20169;-79
2020/12/08 12:57:39;;;;;;;;;;;25.50;57.90;;;;;;1898992;74;20490;-77
2020/12/08 13:00:09;;;;;;;;;;;25.60;58.00;;;;;;1888123;74;20251;-79
2020/12/08 13:02:39;;;;;;;;;;;25.50;58.00;;;;;;1880566;74;20207;-79
2020/12/08 13:05:12;;;;;;;;;;;25.50;58.10;;;;;;1887448;74;20245;-77
2020/12/08 13:07:42;;;;;;;;;;;25.50;58.20;;;;;;1897603;74;20249;-78
2020/12/08 13:10:12;;;;;;;;;;;25.50;58.20;;;;;;1897830;74;20212;-80
2020/12/08 13:12:46;;;;;;;;;;;25.50;58.20;;;;;;1888414;74;20595;-79
2020/12/08 13:15:19;;;;;;;;;;;25.50;58.30;;;;;;1867059;74;20273;-80
2020/12/08 13:17:51;;;;;;;;;;;25.40;58.20;;;;;;1891209;74;20443;-78
2020/12/08 13:20:38;;;;;;;;;;;25.40;58.20;;;;;;1890387;74;20249;-79
2020/12/08 13:23:21;;;;;;;;;;;25.40;58.30;;;;;;1891280;74;20229;-79
2020/12/08 13:25:54;;;;;;;;;;;25.30;58.30;;;;;;1816566;78;20190;-79
2020/12/08 13:28:24;;;;;;;;;;;25.30;58.60;;;;;;1880759;75;20164;-78
2020/12/08 13:30:56;;;;;;;;;;;25.30;58.50;;;;;;1873176;75;20130;-79
2020/12/08 13:33:30;;;;;;;;;;;25.30;58.60;;;;;;1888083;75;20161;-78
2020/12/08 13:36:11;;;;;;;;;;;25.30;58.70;;;;;;1862793;75;20170;-78
2020/12/08 13:38:37;;;;;;;;;;;25.30;58.80;;;;;;1838032;75;20157;-78
2020/12/08 13:41:08;;;;;;;;;;;25.20;58.80;;;;;;1873192;75;20514;-79
2020/12/08 13:43:39;;;;;;;;;;;25.20;58.90;;;;;;1863939;75;20207;-79
2020/12/08 13:46:14;;;;;;;;;;;25.10;59.10;;;;;;1862410;75;20193;-78
2020/12/08 13:49:52;;;;;;;;;;;25.10;59.70;;;;;;1845411;76;20180;-79
2020/12/08 13:51:43;;;;;;;;;;;;;;;;;;;;;
2020/12/08 13:54:25;;;;;;;;;;;25.00;59.10;;;;;;1837532;75;20203;-79
2020/12/08 13:57:03;;;;;;;;;;;25.00;59.70;;;;;;1846279;76;20275;-78
2020/12/08 13:59:36;;;;;;;;;;;25.00;59.40;;;;;;1837168;76;20557;-78
2020/12/08 14:02:11;;;;;;;;;;;24.90;59.40;;;;;;1856068;76;20276;-79
2020/12/08 14:04:48;;;;;;;;;;;24.90;59.50;;;;;;1853307;76;20197;-78
2020/12/08 14:07:24;;;;;;;;;;;24.80;59.70;;;;;;1845809;76;20271;-80
2020/12/08 14:10:15;;;;;;;;;;;24.80;59.80;;;;;;1849283;76;20483;-79
2020/12/08 14:13:07;;;;;;;;;;;24.80;59.90;;;;;;1841718;76;20172;-77
2020/12/08 14:15:43;;;;;;;;;;;24.80;60.10;;;;;;1849579;76;20217;-78
2020/12/08 14:18:35;;;;;;;;;;;24.70;59.90;;;;;;1853941;76;20177;-75
2020/12/08 14:21:28;;;;;;;;;;;24.70;60.20;;;;;;1750457;80;20232;-77
2020/12/08 14:24:00;;;;;;;;;;;24.70;60.10;;;;;;1710431;83;20336;-79
2020/12/08 14:26:46;;;;;;;;;;;24.70;60.40;;;;;;1729680;81;20203;-79
2020/12/08 14:29:13;;;;;;;;;;;24.60;60.30;;;;;;1749369;80;20231;-78
2020/12/08 14:31:46;;;;;;;;;;;24.60;60.20;;;;;;1760110;80;20244;-78
2020/12/08 14:34:15;;;;;;;;;;;24.60;60.20;;;;;;1800357;78;20248;-78
2020/12/08 14:36:51;;;;;;;;;;;24.60;60.50;;;;;;1797277;78;20259;-76
2020/12/08 14:39:28;;;;;;;;;;;24.50;60.60;;;;;;1801032;78;20579;-77
2020/12/08 14:44:10;;;;;;;;;;;24.50;60.90;;;;;;1793285;78;20134;-78
2020/12/08 14:45:17;;;;;;;;;;;24.50;61.00;;;;;;1653567;84;20549;-78
2020/12/08 14:51:12;;;;;;;;;;;24.40;61.40;;;;;;1699079;83;20588;-78
2020/12/08 14:53:39;;;;;;;;;;;24.30;61.60;;;;;;1809518;78;20492;-77
2020/12/08 14:56:09;;;;;;;;;;;24.30;61.90;;;;;;1816140;78;20373;-77
2020/12/08 14:58:41;;;;;;;;;;;24.30;63.00;;;;;;1816635;78;20171;-77
2020/12/08 15:01:13;;;;;;;;;;;24.20;62.50;;;;;;1820732;78;20189;-77
2020/12/08 15:03:43;;;;;;;;;;;24.20;62.40;;;;;;1815652;78;20660;-78
2020/12/08 15:06:15;;;;;;;;;;;24.10;63.10;;;;;;1809778;77;20469;-76
2020/12/08 15:08:46;;;;;;;;;;;24.10;63.20;;;;;;1812468;78;20152;-76